createdAt,value
2018-06-15T00:00:08.250Z,1010.83
2018-06-15T00:01:08.263Z,1010.85
2018-06-15T00:02:08.197Z,1010.84
2018-06-15T00:03:08.169Z,1010.83
2018-06-15T00:04:08.147Z,1010.88
2018-06-15T00:05:08.130Z,1010.85
2018-06-15T00:06:08.106Z,1010.86
2018-06-15T00:07:08.077Z,1010.86
2018-06-15T00:08:08.055Z,1010.86
2018-06-15T00:09:08.029Z,1010.81
2018-06-15T00:10:08.007Z,1010.82
2018-06-15T00:11:07.985Z,1010.83
2018-06-15T00:12:07.962Z,1010.85
2018-06-15T00:13:07.931Z,1010.84
2018-06-15T00:14:07.916Z,1010.84
2018-06-15T00:15:07.889Z,1010.80
2018-06-15T00:16:07.860Z,1010.79
2018-06-15T00:17:07.841Z,1010.81
2018-06-15T00:18:07.813Z,1010.77
2018-06-15T00:19:07.796Z,1010.78
2018-06-15T00:20:07.759Z,1010.79
2018-06-15T00:21:07.744Z,1010.80
2018-06-15T00:22:07.718Z,1010.78
2018-06-15T00:23:07.701Z,1010.79
2018-06-15T00:24:07.665Z,1010.76
2018-06-15T00:25:07.646Z,1010.77
2018-06-15T00:26:07.624Z,1010.75
2018-06-15T00:27:07.596Z,1010.77
2018-06-15T00:28:07.574Z,1010.73
2018-06-15T00:29:07.562Z,1010.75
2018-06-15T00:30:07.523Z,1010.75
2018-06-15T00:31:07.500Z,1010.79
2018-06-15T00:32:07.472Z,1010.75
2018-06-15T00:33:07.471Z,1010.74
2018-06-15T00:34:07.425Z,1010.76
2018-06-15T00:35:07.403Z,1010.75
2018-06-15T00:36:07.382Z,1010.75
2018-06-15T00:37:07.361Z,1010.73
2018-06-15T00:38:07.335Z,1010.76
2018-06-15T00:39:07.304Z,1010.75
2018-06-15T00:40:07.276Z,1010.79
2018-06-15T00:41:07.258Z,1010.75
2018-06-15T00:42:07.238Z,1010.76
2018-06-15T00:43:07.211Z,1010.75
2018-06-15T00:44:07.183Z,1010.72
2018-06-15T00:45:07.161Z,1010.72
2018-06-15T00:46:07.146Z,1010.67
2018-06-15T00:47:07.115Z,1010.71
2018-06-15T00:48:07.090Z,1010.71
2018-06-15T00:49:07.069Z,1010.70
2018-06-15T00:50:07.036Z,1010.71
2018-06-15T00:51:07.019Z,1010.71
2018-06-15T00:52:06.993Z,1010.72
2018-06-15T00:53:06.973Z,1010.66
2018-06-15T00:54:06.945Z,1010.72
2018-06-15T00:55:06.920Z,1010.69
2018-06-15T00:56:06.894Z,1010.69
2018-06-15T00:57:06.868Z,1010.68
2018-06-15T00:58:06.853Z,1010.66
2018-06-15T00:59:06.826Z,1010.66
2018-06-15T01:00:06.803Z,1010.63
2018-06-15T01:01:06.782Z,1010.67
2018-06-15T01:02:06.748Z,1010.64
2018-06-15T01:03:06.738Z,1010.62
2018-06-15T01:04:06.703Z,1010.65
2018-06-15T01:05:06.674Z,1010.62
2018-06-15T01:06:06.659Z,1010.62
2018-06-15T01:07:06.627Z,1010.59
2018-06-15T01:08:06.610Z,1010.60
2018-06-15T01:09:06.594Z,1010.61
2018-06-15T01:10:06.561Z,1010.60
2018-06-15T01:11:06.537Z,1010.59
2018-06-15T01:12:06.518Z,1010.65
2018-06-15T01:13:06.484Z,1010.60
2018-06-15T01:14:06.462Z,1010.60
2018-06-15T01:15:06.434Z,1010.61
2018-06-15T01:16:06.420Z,1010.58
2018-06-15T01:17:06.385Z,1010.55
2018-06-15T01:18:06.370Z,1010.55
2018-06-15T01:19:06.347Z,1010.52
2018-06-15T01:20:06.311Z,1010.54
2018-06-15T01:21:06.802Z,1010.52
2018-06-15T01:22:06.265Z,1010.56
2018-06-15T01:23:06.248Z,1010.55
2018-06-15T01:24:06.215Z,1010.55
2018-06-15T01:25:06.203Z,1010.55
2018-06-15T01:26:06.182Z,1010.51
2018-06-15T01:27:06.143Z,1010.51
2018-06-15T01:28:06.125Z,1010.50
2018-06-15T01:29:06.104Z,1010.52
2018-06-15T01:30:06.080Z,1010.54
2018-06-15T01:31:06.057Z,1010.50
2018-06-15T01:32:06.022Z,1010.50
2018-06-15T01:33:06.013Z,1010.52
2018-06-15T01:34:05.975Z,1010.55
2018-06-15T01:35:05.957Z,1010.53
2018-06-15T01:36:05.935Z,1010.53
2018-06-15T01:37:05.902Z,1010.51
2018-06-15T01:38:05.895Z,1010.51
2018-06-15T01:39:05.859Z,1010.51
2018-06-15T01:40:05.830Z,1010.54
2018-06-15T01:41:05.812Z,1010.54
2018-06-15T01:42:05.792Z,1010.52
2018-06-15T01:43:05.760Z,1010.53
2018-06-15T01:44:05.734Z,1010.52
2018-06-15T01:45:05.719Z,1010.51
2018-06-15T01:46:05.691Z,1010.50
2018-06-15T01:47:05.657Z,1010.51
2018-06-15T01:48:05.644Z,1010.50
2018-06-15T01:49:05.623Z,1010.47
2018-06-15T01:50:05.591Z,1010.46
2018-06-15T01:51:05.575Z,1010.39
2018-06-15T01:52:05.539Z,1010.42
2018-06-15T01:53:05.519Z,1010.38
2018-06-15T01:54:05.500Z,1010.39
2018-06-15T01:55:05.478Z,1010.43
2018-06-15T01:56:05.447Z,1010.44
2018-06-15T01:57:05.429Z,1010.46
2018-06-15T01:58:05.396Z,1010.46
2018-06-15T01:59:05.374Z,1010.42
2018-06-15T02:00:05.349Z,1010.46
2018-06-15T02:01:05.384Z,1010.47
2018-06-15T02:02:05.308Z,1010.41
2018-06-15T02:03:05.277Z,1010.44
2018-06-15T02:04:05.263Z,1010.44
2018-06-15T02:05:05.236Z,1010.43
2018-06-15T02:06:05.201Z,1010.39
2018-06-15T02:07:05.181Z,1010.43
2018-06-15T02:08:05.169Z,1010.40
2018-06-15T02:09:05.126Z,1010.39
2018-06-15T02:10:05.116Z,1010.37
2018-06-15T02:11:05.092Z,1010.34
2018-06-15T02:12:05.064Z,1010.34
2018-06-15T02:13:05.036Z,1010.33
2018-06-15T02:14:05.010Z,1010.34
2018-06-15T02:15:04.994Z,1010.29
2018-06-15T02:16:04.964Z,1010.26
2018-06-15T02:17:04.936Z,1010.25
2018-06-15T02:18:04.914Z,1010.22
2018-06-15T02:19:04.892Z,1010.25
2018-06-15T02:20:04.869Z,1010.25
2018-06-15T02:21:04.846Z,1010.22
2018-06-15T02:22:04.816Z,1010.25
2018-06-15T02:23:04.792Z,1010.23
2018-06-15T02:24:04.768Z,1010.22
2018-06-15T02:25:04.743Z,1010.26
2018-06-15T02:26:04.723Z,1010.27
2018-06-15T02:27:07.984Z,1010.22
2018-06-15T02:28:07.912Z,1010.26
2018-06-15T02:29:07.901Z,1010.25
2018-06-15T02:30:05.568Z,1010.24
2018-06-15T02:31:06.918Z,1010.27
2018-06-15T02:32:05.814Z,1010.26
2018-06-15T02:33:06.264Z,1010.26
2018-06-15T02:34:05.945Z,1010.32
2018-06-15T02:35:07.946Z,1010.33
2018-06-15T02:36:04.481Z,1010.35
2018-06-15T02:37:04.455Z,1010.36
2018-06-15T02:38:04.448Z,1010.38
2018-06-15T02:39:04.409Z,1010.38
2018-06-15T02:40:04.377Z,1010.39
2018-06-15T02:41:04.359Z,1010.40
2018-06-15T02:42:04.334Z,1010.37
2018-06-15T02:43:04.816Z,1010.37
2018-06-15T02:44:04.283Z,1010.39
2018-06-15T02:45:04.262Z,1010.41
2018-06-15T02:46:04.239Z,1010.41
2018-06-15T02:47:04.214Z,1010.38
2018-06-15T02:48:04.182Z,1010.42
2018-06-15T02:49:04.158Z,1010.49
2018-06-15T02:50:04.141Z,1010.45
2018-06-15T02:51:04.116Z,1010.49
2018-06-15T02:52:04.094Z,1010.51
2018-06-15T02:53:04.069Z,1010.46
2018-06-15T02:54:04.044Z,1010.52
2018-06-15T02:55:04.027Z,1010.49
2018-06-15T02:56:03.987Z,1010.51
2018-06-15T02:57:03.975Z,1010.52
2018-06-15T02:58:03.950Z,1010.54
2018-06-15T02:59:03.947Z,1010.54
2018-06-15T03:00:03.904Z,1010.59
2018-06-15T03:01:03.876Z,1010.64
2018-06-15T03:02:03.899Z,1010.63
2018-06-15T03:03:03.827Z,1010.65
2018-06-15T03:04:03.841Z,1010.67
2018-06-15T03:05:03.772Z,1010.69
2018-06-15T03:06:03.753Z,1010.67
2018-06-15T03:07:03.730Z,1010.73
2018-06-15T03:08:03.697Z,1010.71
2018-06-15T03:09:03.676Z,1010.78
2018-06-15T03:10:03.671Z,1010.77
2018-06-15T03:11:03.624Z,1010.76
2018-06-15T03:12:03.609Z,1010.82
2018-06-15T03:13:03.584Z,1010.83
2018-06-15T03:14:03.555Z,1010.83
2018-06-15T03:15:03.526Z,1010.84
2018-06-15T03:16:03.511Z,1010.84
2018-06-15T03:17:03.484Z,1010.84
2018-06-15T03:18:03.458Z,1010.85
2018-06-15T03:19:03.437Z,1010.83
2018-06-15T03:20:03.406Z,1010.82
2018-06-15T03:21:03.385Z,1010.82
2018-06-15T03:22:03.362Z,1010.80
2018-06-15T03:23:03.331Z,1010.80
2018-06-15T03:24:03.322Z,1010.86
2018-06-15T03:25:03.302Z,1010.84
2018-06-15T03:26:03.263Z,1010.85
2018-06-15T03:27:03.242Z,1010.83
2018-06-15T03:28:03.208Z,1010.85
2018-06-15T03:29:03.187Z,1010.84
2018-06-15T03:30:03.169Z,1010.85
2018-06-15T03:31:03.151Z,1010.83
2018-06-15T03:32:03.115Z,1010.80
2018-06-15T03:33:03.093Z,1010.85
2018-06-15T03:34:03.072Z,1010.87
2018-06-15T03:35:03.048Z,1010.86
2018-06-15T03:36:03.024Z,1010.85
2018-06-15T03:37:03.009Z,1010.86
2018-06-15T03:38:02.980Z,1010.85
2018-06-15T03:39:02.952Z,1010.84
2018-06-15T03:40:02.919Z,1010.89
2018-06-15T03:41:02.915Z,1010.86
2018-06-15T03:42:02.873Z,1010.91
2018-06-15T03:43:02.852Z,1010.92
2018-06-15T03:44:02.836Z,1010.87
2018-06-15T03:45:02.797Z,1010.91
2018-06-15T03:46:02.782Z,1010.90
2018-06-15T03:47:02.757Z,1010.92
2018-06-15T03:48:02.728Z,1010.92
2018-06-15T03:49:02.707Z,1010.96
2018-06-15T03:50:02.687Z,1010.94
2018-06-15T03:51:02.661Z,1010.94
2018-06-15T03:52:02.628Z,1010.98
2018-06-15T03:53:02.617Z,1010.96
2018-06-15T03:54:02.581Z,1010.98
2018-06-15T03:55:02.563Z,1011.02
2018-06-15T03:56:02.539Z,1011.00
2018-06-15T03:57:02.509Z,1010.97
2018-06-15T03:58:02.488Z,1011.02
2018-06-15T03:59:02.465Z,1011.04
2018-06-15T04:00:02.440Z,1011.02
2018-06-15T04:01:02.413Z,1011.04
2018-06-15T04:02:02.391Z,1011.09
2018-06-15T04:03:02.364Z,1011.10
2018-06-15T04:04:02.347Z,1011.09
2018-06-15T04:05:02.320Z,1011.09
2018-06-15T04:06:02.302Z,1011.08
2018-06-15T04:07:02.273Z,1011.09
2018-06-15T04:08:02.241Z,1011.06
2018-06-15T04:09:02.229Z,1011.07
2018-06-15T04:10:02.194Z,1011.07
2018-06-15T04:11:02.172Z,1011.09
2018-06-15T04:12:02.154Z,1011.14
2018-06-15T04:13:02.162Z,1011.09
2018-06-15T04:14:02.113Z,1011.10
2018-06-15T04:15:02.087Z,1011.13
2018-06-15T04:16:02.047Z,1011.14
2018-06-15T04:17:02.035Z,1011.14
2018-06-15T04:18:02.003Z,1011.15
2018-06-15T04:19:01.990Z,1011.14
2018-06-15T04:20:01.950Z,1011.13
2018-06-15T04:21:01.941Z,1011.10
2018-06-15T04:22:01.905Z,1011.13
2018-06-15T04:23:01.894Z,1011.14
2018-06-15T04:24:01.864Z,1011.14
2018-06-15T04:25:01.829Z,1011.12
2018-06-15T04:26:01.814Z,1011.16
2018-06-15T04:27:01.789Z,1011.18
2018-06-15T04:28:01.761Z,1011.20
2018-06-15T04:29:01.739Z,1011.19
2018-06-15T04:30:01.720Z,1011.21
2018-06-15T04:31:01.685Z,1011.20
2018-06-15T04:32:01.666Z,1011.19
2018-06-15T04:33:01.637Z,1011.20
2018-06-15T04:34:01.615Z,1011.18
2018-06-15T04:35:01.596Z,1011.22
2018-06-15T04:36:01.570Z,1011.20
2018-06-15T04:37:01.541Z,1011.18
2018-06-15T04:38:01.527Z,1011.19
2018-06-15T04:39:01.499Z,1011.19
2018-06-15T04:40:01.474Z,1011.18
2018-06-15T04:41:01.454Z,1011.18
2018-06-15T04:42:01.420Z,1011.18
2018-06-15T04:43:01.398Z,1011.14
2018-06-15T04:44:01.380Z,1011.16
2018-06-15T04:45:01.355Z,1011.19
2018-06-15T04:46:01.340Z,1011.18
2018-06-15T04:47:01.309Z,1011.20
2018-06-15T04:48:01.289Z,1011.16
2018-06-15T04:49:01.256Z,1011.19
2018-06-15T04:50:01.238Z,1011.19
2018-06-15T04:51:01.207Z,1011.22
2018-06-15T04:52:01.192Z,1011.24
2018-06-15T04:53:01.165Z,1011.22
2018-06-15T04:54:01.136Z,1011.21
2018-06-15T04:55:01.114Z,1011.24
2018-06-15T04:56:01.096Z,1011.26
2018-06-15T04:57:01.079Z,1011.24
2018-06-15T04:58:01.047Z,1011.24
2018-06-15T04:59:01.021Z,1011.28
2018-06-15T05:00:00.995Z,1011.28
2018-06-15T05:01:00.971Z,1011.25
2018-06-15T05:02:00.966Z,1011.27
2018-06-15T05:03:00.925Z,1011.27
2018-06-15T05:04:00.906Z,1011.26
2018-06-15T05:05:00.874Z,1011.29
2018-06-15T05:06:00.849Z,1011.31
2018-06-15T05:07:00.830Z,1011.32
2018-06-15T05:08:00.798Z,1011.34
2018-06-15T05:09:00.774Z,1011.32
2018-06-15T05:10:00.771Z,1011.33
2018-06-15T05:11:00.737Z,1011.37
2018-06-15T05:12:00.706Z,1011.34
2018-06-15T05:13:00.693Z,1011.33
2018-06-15T05:14:00.657Z,1011.38
2018-06-15T05:15:00.638Z,1011.34
2018-06-15T05:16:00.616Z,1011.36
2018-06-15T05:17:00.586Z,1011.33
2018-06-15T05:18:00.569Z,1011.37
2018-06-15T05:19:00.544Z,1011.36
2018-06-15T05:20:00.510Z,1011.36
2018-06-15T05:21:00.501Z,1011.39
2018-06-15T05:22:00.469Z,1011.39
2018-06-15T05:23:00.454Z,1011.36
2018-06-15T05:24:00.423Z,1011.34
2018-06-15T05:25:00.403Z,1011.35
2018-06-15T05:26:00.376Z,1011.33
2018-06-15T05:27:00.360Z,1011.30
2018-06-15T05:28:00.327Z,1011.25
2018-06-15T05:29:00.308Z,1011.25
2018-06-15T05:30:00.284Z,1011.27
2018-06-15T05:31:00.260Z,1011.30
2018-06-15T05:32:00.235Z,1011.29
2018-06-15T05:33:00.259Z,1011.32
2018-06-15T05:34:00.192Z,1011.34
2018-06-15T05:35:00.183Z,1011.36
2018-06-15T05:36:00.136Z,1011.38
2018-06-15T05:37:00.146Z,1011.40
2018-06-15T05:38:00.096Z,1011.41
2018-06-15T05:39:00.062Z,1011.41
2018-06-15T05:40:00.049Z,1011.43
2018-06-15T05:41:00.025Z,1011.43
2018-06-15T05:42:00.004Z,1011.45
2018-06-15T05:42:59.976Z,1011.46
2018-06-15T05:43:59.949Z,1011.45
2018-06-15T05:44:59.921Z,1011.48
2018-06-15T05:45:59.907Z,1011.53
2018-06-15T05:47:00.857Z,1011.52
2018-06-15T05:47:59.876Z,1011.52
2018-06-15T05:48:59.825Z,1011.56
2018-06-15T05:49:59.857Z,1011.54
2018-06-15T05:50:59.787Z,1011.54
2018-06-15T05:51:59.763Z,1011.56
2018-06-15T05:52:59.733Z,1011.59
2018-06-15T05:53:59.707Z,1011.58
2018-06-15T05:54:59.691Z,1011.61
2018-06-15T05:55:59.659Z,1011.61
2018-06-15T05:56:59.640Z,1011.61
2018-06-15T05:57:59.621Z,1011.60
2018-06-15T05:58:59.590Z,1011.62
2018-06-15T05:59:59.575Z,1011.63
2018-06-15T06:00:59.549Z,1011.60
2018-06-15T06:01:59.527Z,1011.63
2018-06-15T06:02:59.504Z,1011.64
2018-06-15T06:03:59.577Z,1011.65
2018-06-15T06:04:59.458Z,1011.64
2018-06-15T06:05:59.451Z,1011.67
2018-06-15T06:06:59.402Z,1011.64
2018-06-15T06:07:59.388Z,1011.66
2018-06-15T06:08:59.358Z,1011.69
2018-06-15T06:09:59.342Z,1011.69
2018-06-15T06:10:59.306Z,1011.68
2018-06-15T06:11:59.294Z,1011.67
2018-06-15T06:12:59.268Z,1011.67
2018-06-15T06:13:59.243Z,1011.65
2018-06-15T06:14:59.222Z,1011.67
2018-06-15T06:15:59.190Z,1011.66
2018-06-15T06:16:59.175Z,1011.64
2018-06-15T06:17:59.152Z,1011.65
2018-06-15T06:18:59.127Z,1011.66
2018-06-15T06:19:59.140Z,1011.65
2018-06-15T06:20:59.073Z,1011.65
2018-06-15T06:21:59.064Z,1011.66
2018-06-15T06:22:59.036Z,1011.66
2018-06-15T06:23:59.004Z,1011.67
2018-06-15T06:24:58.992Z,1011.66
2018-06-15T06:25:58.960Z,1011.70
2018-06-15T06:26:58.944Z,1011.66
2018-06-15T06:27:58.919Z,1011.75
2018-06-15T06:28:58.903Z,1011.73
2018-06-15T06:29:58.866Z,1011.75
2018-06-15T06:30:58.893Z,1011.77
2018-06-15T06:31:58.834Z,1011.81
2018-06-15T06:32:58.811Z,1011.82
2018-06-15T06:33:58.783Z,1011.86
2018-06-15T06:34:58.756Z,1011.91
2018-06-15T06:35:58.739Z,1011.93
2018-06-15T06:36:58.721Z,1011.94
2018-06-15T06:37:58.711Z,1011.94
2018-06-15T06:38:58.668Z,1011.92
2018-06-15T06:39:58.639Z,1011.95
2018-06-15T06:40:58.614Z,1011.94
2018-06-15T06:41:58.600Z,1011.96
2018-06-15T06:42:58.569Z,1011.93
2018-06-15T06:43:58.555Z,1011.92
2018-06-15T06:44:58.529Z,1011.91
2018-06-15T06:45:58.505Z,1011.96
2018-06-15T06:46:58.486Z,1011.91
2018-06-15T06:47:58.462Z,1011.91
2018-06-15T06:48:58.435Z,1011.90
2018-06-15T06:49:58.416Z,1011.88
2018-06-15T06:50:58.387Z,1011.90
2018-06-15T06:51:58.373Z,1011.88
2018-06-15T06:52:58.352Z,1011.88
2018-06-15T06:53:58.325Z,1011.90
2018-06-15T06:54:58.305Z,1011.87
2018-06-15T06:55:58.307Z,1011.92
2018-06-15T06:56:58.257Z,1011.91
2018-06-15T06:57:58.311Z,1011.93
2018-06-15T06:58:58.213Z,1011.94
2018-06-15T06:59:58.194Z,1011.94
2018-06-15T07:00:58.172Z,1011.95
2018-06-15T07:01:58.257Z,1011.96
2018-06-15T07:02:58.122Z,1011.93
2018-06-15T07:03:58.105Z,1011.97
2018-06-15T07:04:58.075Z,1011.95
2018-06-15T07:05:58.053Z,1011.91
2018-06-15T07:06:58.027Z,1011.95
2018-06-15T07:07:58.006Z,1011.89
2018-06-15T07:08:57.986Z,1011.92
2018-06-15T07:09:57.955Z,1011.87
2018-06-15T07:10:57.930Z,1011.89
2018-06-15T07:11:57.919Z,1011.93
2018-06-15T07:12:57.886Z,1011.87
2018-06-15T07:13:57.871Z,1011.88
2018-06-15T07:14:57.850Z,1011.87
2018-06-15T07:15:57.875Z,1011.91
2018-06-15T07:16:57.802Z,1011.92
2018-06-15T07:17:57.777Z,1011.95
2018-06-15T07:18:57.748Z,1011.93
2018-06-15T07:19:57.728Z,1011.92
2018-06-15T07:20:57.704Z,1011.91
2018-06-15T07:21:57.683Z,1011.90
2018-06-15T07:22:57.659Z,1011.88
2018-06-15T07:23:57.647Z,1011.89
2018-06-15T07:24:57.616Z,1011.94
2018-06-15T07:25:57.595Z,1011.91
2018-06-15T07:26:57.569Z,1011.94
2018-06-15T07:27:57.539Z,1011.90
2018-06-15T07:28:57.527Z,1011.92
2018-06-15T07:29:57.529Z,1011.86
2018-06-15T07:30:57.471Z,1011.86
2018-06-15T07:31:57.452Z,1011.85
2018-06-15T07:32:57.422Z,1011.87
2018-06-15T07:33:57.411Z,1011.89
2018-06-15T07:34:57.382Z,1011.90
2018-06-15T07:35:57.357Z,1011.88
2018-06-15T07:36:57.338Z,1011.89
2018-06-15T07:37:57.310Z,1011.91
2018-06-15T07:38:57.285Z,1011.90
2018-06-15T07:39:57.269Z,1011.84
2018-06-15T07:40:57.235Z,1011.88
2018-06-15T07:41:57.212Z,1011.87
2018-06-15T07:42:57.210Z,1011.90
2018-06-15T07:43:57.173Z,1011.89
2018-06-15T07:44:57.144Z,1011.89
2018-06-15T07:45:57.129Z,1011.88
2018-06-15T07:46:57.098Z,1011.92
2018-06-15T07:47:57.082Z,1011.91
2018-06-15T07:48:57.058Z,1011.88
2018-06-15T07:49:57.031Z,1011.87
2018-06-15T07:50:57.013Z,1011.88
2018-06-15T07:51:56.984Z,1011.89
2018-06-15T07:52:56.960Z,1011.94
2018-06-15T07:53:56.940Z,1011.94
2018-06-15T07:54:56.913Z,1011.91
2018-06-15T07:55:56.898Z,1011.92
2018-06-15T07:56:56.873Z,1011.92
2018-06-15T07:57:56.849Z,1011.92
2018-06-15T07:58:56.831Z,1011.92
2018-06-15T07:59:56.797Z,1011.92
2018-06-15T08:00:56.776Z,1011.96
2018-06-15T08:01:56.755Z,1011.94
2018-06-15T08:02:56.726Z,1011.95
2018-06-15T08:03:56.712Z,1011.98
2018-06-15T08:04:56.693Z,1012.00
2018-06-15T08:05:56.657Z,1011.99
2018-06-15T08:06:56.640Z,1012.01
2018-06-15T08:07:56.619Z,1012.00
2018-06-15T08:08:56.608Z,1012.02
2018-06-15T08:09:56.574Z,1012.00
2018-06-15T08:10:56.548Z,1011.99
2018-06-15T08:11:56.530Z,1012.00
2018-06-15T08:12:56.500Z,1011.98
2018-06-15T08:13:59.061Z,1012.02
2018-06-15T08:14:59.058Z,1012.01
2018-06-15T08:15:58.992Z,1012.02
2018-06-15T08:16:58.443Z,1011.94
2018-06-15T08:17:57.674Z,1011.93
2018-06-15T08:18:57.051Z,1011.97
2018-06-15T08:19:56.348Z,1011.98
2018-06-15T08:20:56.321Z,1011.97
2018-06-15T08:21:56.307Z,1011.97
2018-06-15T08:22:56.278Z,1011.99
2018-06-15T08:23:56.253Z,1012.00
2018-06-15T08:24:56.234Z,1011.98
2018-06-15T08:25:56.212Z,1011.97
2018-06-15T08:26:56.185Z,1011.97
2018-06-15T08:27:56.162Z,1011.94
2018-06-15T08:28:56.149Z,1011.93
2018-06-15T08:29:56.124Z,1011.92
2018-06-15T08:30:56.106Z,1011.91
2018-06-15T08:31:56.084Z,1011.92
2018-06-15T08:32:56.058Z,1011.92
2018-06-15T08:33:56.035Z,1011.89
2018-06-15T08:34:56.018Z,1011.90
2018-06-15T08:35:55.987Z,1011.88
2018-06-15T08:36:55.966Z,1011.90
2018-06-15T08:37:55.955Z,1011.89
2018-06-15T08:38:55.933Z,1011.89
2018-06-15T08:39:55.910Z,1011.92
2018-06-15T08:40:55.889Z,1011.92
2018-06-15T08:41:55.861Z,1011.94
2018-06-15T08:42:55.845Z,1011.93
2018-06-15T08:43:55.823Z,1011.96
2018-06-15T08:44:55.804Z,1011.90
2018-06-15T08:45:55.785Z,1011.92
2018-06-15T08:46:55.771Z,1011.91
2018-06-15T08:47:55.738Z,1011.92
2018-06-15T08:48:55.710Z,1011.96
2018-06-15T08:49:55.689Z,1011.93
2018-06-15T08:50:55.670Z,1011.96
2018-06-15T08:51:55.654Z,1012.00
2018-06-15T08:52:55.634Z,1011.97
2018-06-15T08:53:55.617Z,1011.97
2018-06-15T08:54:55.586Z,1011.96
2018-06-15T08:55:55.561Z,1011.98
2018-06-15T08:56:55.550Z,1011.95
2018-06-15T08:57:55.519Z,1011.96
2018-06-15T08:58:55.503Z,1011.94
2018-06-15T08:59:55.476Z,1011.97
2018-06-15T09:00:55.464Z,1011.92
2018-06-15T09:01:55.455Z,1011.95
2018-06-15T09:02:55.415Z,1011.94
2018-06-15T09:03:55.399Z,1011.94
2018-06-15T09:04:55.405Z,1011.92
2018-06-15T09:05:55.351Z,1011.89
2018-06-15T09:06:55.325Z,1011.92
2018-06-15T09:07:55.320Z,1011.90
2018-06-15T09:08:55.295Z,1011.92
2018-06-15T09:09:55.270Z,1011.92
2018-06-15T09:10:55.252Z,1011.92
2018-06-15T09:11:55.221Z,1011.90
2018-06-15T09:12:55.207Z,1011.89
2018-06-15T09:13:55.183Z,1011.92
2018-06-15T09:14:55.184Z,1011.94
2018-06-15T09:15:55.147Z,1011.93
2018-06-15T09:16:55.119Z,1011.88
2018-06-15T09:17:55.103Z,1011.91
2018-06-15T09:18:55.082Z,1011.88
2018-06-15T09:19:55.051Z,1011.87
2018-06-15T09:20:55.034Z,1011.88
2018-06-15T09:21:55.013Z,1011.86
2018-06-15T09:22:54.997Z,1011.88
2018-06-15T09:23:54.968Z,1011.85
2018-06-15T09:24:54.948Z,1011.88
2018-06-15T09:25:54.940Z,1011.87
2018-06-15T09:26:54.902Z,1011.85
2018-06-15T09:27:54.893Z,1011.86
2018-06-15T09:28:54.891Z,1011.88
2018-06-15T09:29:54.847Z,1011.85
2018-06-15T09:30:54.826Z,1011.85
2018-06-15T09:31:54.805Z,1011.84
2018-06-15T09:32:54.778Z,1011.84
2018-06-15T09:33:54.776Z,1011.87
2018-06-15T09:34:54.731Z,1011.91
2018-06-15T09:35:54.722Z,1011.89
2018-06-15T09:36:54.692Z,1011.90
2018-06-15T09:37:54.720Z,1011.91
2018-06-15T09:38:54.703Z,1011.90
2018-06-15T09:39:54.677Z,1011.90
2018-06-15T09:40:54.620Z,1011.91
2018-06-15T09:41:54.631Z,1011.92
2018-06-15T09:42:54.573Z,1011.92
2018-06-15T09:43:54.576Z,1011.90
2018-06-15T09:44:54.524Z,1011.93
2018-06-15T09:45:54.508Z,1011.91
2018-06-15T09:46:54.548Z,1011.91
2018-06-15T09:47:54.473Z,1011.93
2018-06-15T09:48:54.443Z,1011.92
2018-06-15T09:49:54.427Z,1011.95
2018-06-15T09:50:54.403Z,1011.95
2018-06-15T09:51:54.375Z,1011.93
2018-06-15T09:52:54.369Z,1011.91
2018-06-15T09:53:54.404Z,1011.94
2018-06-15T09:54:54.318Z,1011.92
2018-06-15T09:55:54.294Z,1011.90
2018-06-15T09:56:54.272Z,1011.94
2018-06-15T09:57:54.254Z,1011.95
2018-06-15T09:58:54.242Z,1011.93
2018-06-15T09:59:54.209Z,1011.94
2018-06-15T10:00:54.191Z,1011.94
2018-06-15T10:01:54.313Z,1011.92
2018-06-15T10:02:54.152Z,1011.96
2018-06-15T10:03:54.117Z,1011.96
2018-06-15T10:04:54.111Z,1011.95
2018-06-15T10:05:54.083Z,1011.96
2018-06-15T10:06:54.064Z,1011.94
2018-06-15T10:07:54.038Z,1011.97
2018-06-15T10:08:54.013Z,1011.96
2018-06-15T10:09:54.009Z,1011.95
2018-06-15T10:10:53.981Z,1011.96
2018-06-15T10:11:53.953Z,1011.93
2018-06-15T10:12:53.949Z,1011.93
2018-06-15T10:13:53.911Z,1011.93
2018-06-15T10:14:53.889Z,1011.92
2018-06-15T10:15:53.874Z,1011.93
2018-06-15T10:16:53.848Z,1011.92
2018-06-15T10:17:53.833Z,1011.92
2018-06-15T10:18:53.822Z,1011.89
2018-06-15T10:19:53.819Z,1011.90
2018-06-15T10:20:53.766Z,1011.90
2018-06-15T10:21:53.745Z,1011.89
2018-06-15T10:22:53.726Z,1011.89
2018-06-15T10:23:53.694Z,1011.89
2018-06-15T10:24:53.677Z,1011.88
2018-06-15T10:25:53.658Z,1011.90
2018-06-15T10:26:53.635Z,1011.90
2018-06-15T10:27:53.617Z,1011.90
2018-06-15T10:28:53.599Z,1011.96
2018-06-15T10:29:53.577Z,1011.95
2018-06-15T10:30:53.552Z,1011.88
2018-06-15T10:31:53.532Z,1011.88
2018-06-15T10:32:53.571Z,1011.87
2018-06-15T10:33:53.493Z,1011.88
2018-06-15T10:34:53.464Z,1011.91
2018-06-15T10:35:53.446Z,1011.91
2018-06-15T10:36:53.429Z,1011.86
2018-06-15T10:37:53.402Z,1011.84
2018-06-15T10:38:53.384Z,1011.87
2018-06-15T10:39:53.359Z,1011.86
2018-06-15T10:40:53.337Z,1011.86
2018-06-15T10:41:53.324Z,1011.83
2018-06-15T10:42:53.297Z,1011.82
2018-06-15T10:43:53.284Z,1011.81
2018-06-15T10:44:53.261Z,1011.81
2018-06-15T10:45:53.239Z,1011.74
2018-06-15T10:46:53.219Z,1011.76
2018-06-15T10:47:53.190Z,1011.75
2018-06-15T10:48:53.177Z,1011.74
2018-06-15T10:49:53.158Z,1011.71
2018-06-15T10:50:53.133Z,1011.75
2018-06-15T10:51:53.111Z,1011.75
2018-06-15T10:52:53.094Z,1011.72
2018-06-15T10:53:53.072Z,1011.75
2018-06-15T10:54:53.049Z,1011.73
2018-06-15T10:55:53.031Z,1011.68
2018-06-15T10:56:53.008Z,1011.70
2018-06-15T10:57:53.013Z,1011.69
2018-06-15T10:58:52.963Z,1011.73
2018-06-15T10:59:52.944Z,1011.73
2018-06-15T11:00:52.932Z,1011.72
2018-06-15T11:01:52.902Z,1011.74
2018-06-15T11:02:52.880Z,1011.74
2018-06-15T11:03:52.870Z,1011.71
2018-06-15T11:04:52.842Z,1011.71
2018-06-15T11:05:52.836Z,1011.73
2018-06-15T11:06:52.807Z,1011.66
2018-06-15T11:07:52.786Z,1011.67
2018-06-15T11:08:52.763Z,1011.73
2018-06-15T11:09:52.746Z,1011.65
2018-06-15T11:10:52.724Z,1011.67
2018-06-15T11:11:52.699Z,1011.68
2018-06-15T11:12:52.681Z,1011.65
2018-06-15T11:13:52.659Z,1011.65
2018-06-15T11:14:52.634Z,1011.63
2018-06-15T11:15:52.618Z,1011.60
2018-06-15T11:16:52.599Z,1011.60
2018-06-15T11:17:52.584Z,1011.59
2018-06-15T11:18:52.561Z,1011.58
2018-06-15T11:19:52.556Z,1011.57
2018-06-15T11:20:52.526Z,1011.55
2018-06-15T11:21:52.493Z,1011.58
2018-06-15T11:22:52.470Z,1011.54
2018-06-15T11:23:52.464Z,1011.55
2018-06-15T11:24:52.436Z,1011.52
2018-06-15T11:25:52.413Z,1011.53
2018-06-15T11:26:52.392Z,1011.56
2018-06-15T11:27:52.373Z,1011.53
2018-06-15T11:28:52.352Z,1011.52
2018-06-15T11:29:52.336Z,1011.52
2018-06-15T11:30:52.324Z,1011.51
2018-06-15T11:31:52.293Z,1011.49
2018-06-15T11:32:52.277Z,1011.50
2018-06-15T11:33:52.253Z,1011.48
2018-06-15T11:34:52.237Z,1011.47
2018-06-15T11:35:52.211Z,1011.46
2018-06-15T11:36:52.212Z,1011.45
2018-06-15T11:37:52.176Z,1011.47
2018-06-15T11:38:52.155Z,1011.46
2018-06-15T11:39:52.132Z,1011.44
2018-06-15T11:40:52.132Z,1011.49
2018-06-15T11:41:52.096Z,1011.51
2018-06-15T11:42:52.071Z,1011.51
2018-06-15T11:43:52.049Z,1011.50
2018-06-15T11:44:52.028Z,1011.50
2018-06-15T11:45:52.016Z,1011.49
2018-06-15T11:46:51.991Z,1011.47
2018-06-15T11:47:51.967Z,1011.48
2018-06-15T11:48:51.945Z,1011.48
2018-06-15T11:49:51.943Z,1011.52
2018-06-15T11:50:51.909Z,1011.46
2018-06-15T11:51:51.900Z,1011.47
2018-06-15T11:52:51.884Z,1011.44
2018-06-15T11:53:51.886Z,1011.45
2018-06-15T11:54:51.826Z,1011.48
2018-06-15T11:55:51.815Z,1011.45
2018-06-15T11:56:51.789Z,1011.45
2018-06-15T11:57:51.773Z,1011.41
2018-06-15T11:58:51.750Z,1011.42
2018-06-15T11:59:51.733Z,1011.43
2018-06-15T12:00:51.713Z,1011.41
2018-06-15T12:01:51.755Z,1011.43
2018-06-15T12:02:51.697Z,1011.41
2018-06-15T12:03:51.660Z,1011.37
2018-06-15T12:04:51.646Z,1011.38